createdAt,value
2017-11-25T00:00:11.886Z,6.71
2017-11-25T00:01:15.286Z,6.73
2017-11-25T00:02:17.850Z,6.76
2017-11-25T00:03:20.426Z,6.70
2017-11-25T00:04:23.506Z,6.62
2017-11-25T00:05:26.146Z,6.64
2017-11-25T00:06:28.730Z,6.69
2017-11-25T00:07:31.377Z,6.68
2017-11-25T00:08:34.014Z,6.68
2017-11-25T00:09:36.644Z,6.67
2017-11-25T00:10:39.683Z,6.67
2017-11-25T00:11:42.261Z,6.57
2017-11-25T00:12:44.833Z,6.61
2017-11-25T00:13:47.495Z,6.63
2017-11-25T00:14:50.063Z,6.62
2017-11-25T00:15:52.619Z,6.66
2017-11-25T00:16:55.699Z,6.69
2017-11-25T00:17:58.396Z,6.70
2017-11-25T00:19:01.062Z,6.71
2017-11-25T00:20:03.825Z,6.70
2017-11-25T00:21:06.437Z,6.72
2017-11-25T00:22:09.137Z,6.71
2017-11-25T00:23:12.166Z,6.74
2017-11-25T00:24:14.841Z,6.72
2017-11-25T00:25:17.448Z,6.68
2017-11-25T00:26:19.958Z,6.71
2017-11-25T00:27:22.562Z,6.70
2017-11-25T00:28:26.149Z,6.60
2017-11-25T00:29:30.173Z,6.63
2017-11-25T00:30:32.782Z,6.59
2017-11-25T00:31:35.602Z,6.62
2017-11-25T00:32:38.219Z,6.65
2017-11-25T00:33:40.889Z,6.70
2017-11-25T00:34:43.566Z,6.73
2017-11-25T00:35:46.709Z,6.77
2017-11-25T00:36:49.406Z,6.79
2017-11-25T00:37:52.043Z,6.73
2017-11-25T00:38:54.633Z,6.73
2017-11-25T00:39:57.303Z,6.72
2017-11-25T00:40:59.897Z,6.73
2017-11-25T00:42:02.888Z,6.75
2017-11-25T00:43:05.419Z,6.73
2017-11-25T00:44:08.036Z,6.71
2017-11-25T00:45:10.980Z,6.62
2017-11-25T00:46:13.654Z,6.57
2017-11-25T00:47:16.153Z,6.59
2017-11-25T00:48:19.209Z,6.57
2017-11-25T00:49:21.832Z,6.65
2017-11-25T00:50:24.380Z,6.69
2017-11-25T00:51:26.985Z,6.70
2017-11-25T00:52:29.625Z,6.67
2017-11-25T00:53:32.258Z,6.64
2017-11-25T00:54:35.346Z,6.62
2017-11-25T00:55:37.961Z,6.65
2017-11-25T00:56:40.627Z,6.70
2017-11-25T00:57:43.273Z,6.68
2017-11-25T00:58:45.889Z,6.70
2017-11-25T00:59:48.490Z,6.67
2017-11-25T01:00:51.502Z,6.66
2017-11-25T01:01:54.107Z,6.62
2017-11-25T01:02:56.776Z,6.61
2017-11-25T01:03:59.393Z,6.59
2017-11-25T01:05:02.058Z,6.59
2017-11-25T01:06:04.802Z,6.56
2017-11-25T01:07:07.878Z,6.59
2017-11-25T01:08:10.482Z,6.63
2017-11-25T01:09:13.081Z,6.64
2017-11-25T01:10:15.696Z,6.65
2017-11-25T01:11:18.345Z,6.63
2017-11-25T01:12:20.953Z,6.55
2017-11-25T01:13:23.980Z,6.51
2017-11-25T01:14:26.605Z,6.49
2017-11-25T01:15:29.272Z,6.53
2017-11-25T01:16:31.888Z,6.57
2017-11-25T01:17:34.594Z,6.60
2017-11-25T01:18:37.253Z,6.61
2017-11-25T01:19:40.344Z,6.61
2017-11-25T01:20:42.966Z,6.60
2017-11-25T01:21:45.604Z,6.63
2017-11-25T01:22:48.234Z,6.64
2017-11-25T01:23:50.920Z,6.64
2017-11-25T01:24:53.512Z,6.66
2017-11-25T01:25:56.554Z,6.64
2017-11-25T01:26:59.140Z,6.66
2017-11-25T01:28:01.874Z,6.66
2017-11-25T01:29:04.469Z,6.66
2017-11-25T01:30:07.112Z,6.59
2017-11-25T01:31:09.733Z,6.56
2017-11-25T01:32:12.810Z,6.56
2017-11-25T01:33:15.446Z,6.61
2017-11-25T01:34:18.132Z,6.63
2017-11-25T01:35:20.725Z,6.62
2017-11-25T01:36:23.356Z,6.53
2017-11-25T01:37:26.036Z,6.59
2017-11-25T01:38:29.034Z,6.58
2017-11-25T01:39:32.415Z,6.57
2017-11-25T01:40:35.029Z,6.63
2017-11-25T01:41:37.711Z,6.66
2017-11-25T01:42:40.320Z,6.65
2017-11-25T01:43:43.223Z,6.68
2017-11-25T01:44:46.288Z,6.64
2017-11-25T01:45:48.931Z,6.65
2017-11-25T01:46:51.498Z,6.69
2017-11-25T01:47:54.127Z,6.72
2017-11-25T01:48:56.674Z,6.73
2017-11-25T01:49:59.365Z,6.65
2017-11-25T01:51:02.607Z,6.60
2017-11-25T01:52:05.310Z,6.62
2017-11-25T01:53:08.052Z,6.60
2017-11-25T01:54:10.657Z,6.55
2017-11-25T01:55:13.910Z,6.53
2017-11-25T01:56:16.621Z,6.55
2017-11-25T01:57:19.650Z,6.61
2017-11-25T01:58:22.440Z,6.56
2017-11-25T01:59:25.242Z,6.60
2017-11-25T02:00:27.866Z,6.59
2017-11-25T02:01:30.575Z,6.57
2017-11-25T02:02:33.162Z,6.56
2017-11-25T02:03:36.081Z,6.54
2017-11-25T02:04:38.729Z,6.50
2017-11-25T02:05:41.430Z,6.44
2017-11-25T02:06:44.064Z,6.41
2017-11-25T02:07:46.684Z,6.38
2017-11-25T02:08:49.280Z,6.34
2017-11-25T02:09:52.374Z,6.35
2017-11-25T02:10:54.985Z,6.36
2017-11-25T02:11:57.649Z,6.36
2017-11-25T02:13:00.341Z,6.37
2017-11-25T02:14:03.013Z,6.42
2017-11-25T02:15:05.641Z,6.46
2017-11-25T02:16:08.653Z,6.50
2017-11-25T02:17:11.292Z,6.51
2017-11-25T02:18:13.917Z,6.52
2017-11-25T02:19:16.553Z,6.51
2017-11-25T02:20:19.083Z,6.51
2017-11-25T02:21:21.638Z,6.53
2017-11-25T02:22:24.642Z,6.56
2017-11-25T02:23:27.282Z,6.57
2017-11-25T02:24:29.873Z,6.56
2017-11-25T02:25:32.543Z,6.57
2017-11-25T02:26:35.443Z,6.54
2017-11-25T02:27:38.066Z,6.55
2017-11-25T02:28:41.142Z,6.55
2017-11-25T02:29:43.781Z,6.57
2017-11-25T02:30:46.460Z,6.55
2017-11-25T02:31:49.115Z,6.56
2017-11-25T02:32:51.758Z,6.56
2017-11-25T02:33:54.406Z,6.60
2017-11-25T02:34:57.462Z,6.64
2017-11-25T02:36:00.037Z,6.56
2017-11-25T02:37:02.735Z,6.53
2017-11-25T02:38:05.371Z,6.55
2017-11-25T02:39:08.019Z,6.57
2017-11-25T02:40:10.630Z,6.51
2017-11-25T02:41:13.750Z,6.53
2017-11-25T02:42:16.370Z,6.52
2017-11-25T02:43:19.033Z,6.53
2017-11-25T02:44:21.657Z,6.52
2017-11-25T02:45:24.267Z,6.52
2017-11-25T02:46:26.877Z,6.55
2017-11-25T02:47:29.951Z,6.53
2017-11-25T02:48:32.572Z,6.58
2017-11-25T02:49:35.230Z,6.63
2017-11-25T02:50:37.876Z,6.61
2017-11-25T02:51:40.505Z,6.58
2017-11-25T02:52:43.122Z,6.55
2017-11-25T02:53:46.149Z,6.58
2017-11-25T02:54:48.762Z,6.60
2017-11-25T02:55:51.421Z,6.63
2017-11-25T02:56:54.072Z,6.64
2017-11-25T02:57:57.140Z,6.64
2017-11-25T02:58:59.774Z,6.66
2017-11-25T03:00:03.032Z,6.66
2017-11-25T03:01:05.672Z,6.62
2017-11-25T03:02:08.319Z,6.58
2017-11-25T03:03:10.945Z,6.56
2017-11-25T03:04:13.589Z,6.57
2017-11-25T03:05:16.221Z,6.56
2017-11-25T03:06:19.190Z,6.63
2017-11-25T03:07:21.816Z,6.68
2017-11-25T03:08:24.576Z,6.69
2017-11-25T03:09:27.229Z,6.69
2017-11-25T03:10:29.797Z,6.67
2017-11-25T03:11:32.351Z,6.58
2017-11-25T03:12:35.291Z,6.53
2017-11-25T03:13:37.894Z,6.50
2017-11-25T03:14:40.504Z,6.50
2017-11-25T03:15:43.019Z,6.46
2017-11-25T03:16:45.684Z,6.44
2017-11-25T03:17:48.288Z,6.38
2017-11-25T03:18:51.484Z,6.35
2017-11-25T03:19:54.112Z,6.37
2017-11-25T03:20:56.761Z,6.37
2017-11-25T03:21:59.398Z,6.36
2017-11-25T03:23:02.300Z,6.35
2017-11-25T03:24:04.990Z,6.36
2017-11-25T03:25:08.081Z,6.36
2017-11-25T03:26:10.706Z,6.32
2017-11-25T03:27:13.363Z,6.31
2017-11-25T03:28:16.048Z,6.35
2017-11-25T03:29:18.678Z,6.40
2017-11-25T03:30:21.657Z,6.38
2017-11-25T03:31:24.675Z,6.39
2017-11-25T03:32:27.295Z,6.44
2017-11-25T03:33:29.911Z,6.45
2017-11-25T03:34:32.524Z,6.52
2017-11-25T03:35:35.199Z,6.56
2017-11-25T03:36:37.840Z,6.56
2017-11-25T03:37:40.960Z,6.56
2017-11-25T03:38:43.610Z,6.58
2017-11-25T03:39:46.290Z,6.58
2017-11-25T03:40:49.060Z,6.59
2017-11-25T03:41:51.777Z,6.59
2017-11-25T03:42:54.391Z,6.57
2017-11-25T03:43:57.396Z,6.56
2017-11-25T03:45:00.055Z,6.56
2017-11-25T03:46:02.686Z,6.59
2017-11-25T03:47:05.324Z,6.62
2017-11-25T03:48:07.932Z,6.69
2017-11-25T03:49:10.610Z,6.69
2017-11-25T03:50:13.610Z,6.66
2017-11-25T03:51:16.422Z,6.67
2017-11-25T03:52:20.503Z,6.73
2017-11-25T03:53:23.190Z,6.73
2017-11-25T03:54:25.902Z,6.71
2017-11-25T03:55:28.513Z,6.68
2017-11-25T03:56:31.491Z,6.69
2017-11-25T03:57:34.021Z,6.69
2017-11-25T03:58:36.571Z,6.71
2017-11-25T03:59:39.186Z,6.72
2017-11-25T04:00:41.830Z,6.73
2017-11-25T04:01:44.479Z,6.72
2017-11-25T04:02:47.173Z,6.70
2017-11-25T04:03:49.796Z,6.72
2017-11-25T04:04:52.442Z,6.76
2017-11-25T04:05:55.091Z,6.67
2017-11-25T04:06:57.776Z,6.66
2017-11-25T04:08:00.463Z,6.65
2017-11-25T04:09:03.160Z,6.65
2017-11-25T04:10:05.794Z,6.66
2017-11-25T04:11:08.454Z,6.69
2017-11-25T04:12:11.916Z,6.71
2017-11-25T04:13:15.280Z,6.67
2017-11-25T04:14:18.418Z,6.76
2017-11-25T04:15:21.074Z,6.70
2017-11-25T04:16:23.629Z,6.66
2017-11-25T04:17:26.267Z,6.62
2017-11-25T04:18:31.297Z,6.65
2017-11-25T04:19:34.257Z,6.69
2017-11-25T04:20:37.496Z,6.66
2017-11-25T04:21:40.469Z,6.61
2017-11-25T04:22:43.356Z,6.63
2017-11-25T04:23:46.078Z,6.65
2017-11-25T04:24:48.734Z,6.62
2017-11-25T04:25:51.811Z,6.67
2017-11-25T04:26:54.488Z,6.65
2017-11-25T04:27:57.091Z,6.69
2017-11-25T04:28:59.749Z,6.67
2017-11-25T04:30:02.398Z,6.71
2017-11-25T04:31:05.055Z,6.72
2017-11-25T04:32:08.068Z,6.75
2017-11-25T04:33:10.718Z,6.78
2017-11-25T04:34:13.375Z,6.75
2017-11-25T04:35:16.014Z,6.70
2017-11-25T04:36:18.687Z,6.74
2017-11-25T04:37:21.307Z,6.78
2017-11-25T04:38:24.260Z,6.73
2017-11-25T04:39:26.949Z,6.73
2017-11-25T04:40:29.582Z,6.72
2017-11-25T04:41:32.214Z,6.63
2017-11-25T04:42:34.855Z,6.67
2017-11-25T04:43:37.533Z,6.71
2017-11-25T04:44:40.661Z,6.68
2017-11-25T04:45:43.301Z,6.66
2017-11-25T04:46:45.911Z,6.66
2017-11-25T04:47:48.608Z,6.58
2017-11-25T04:48:51.225Z,6.62
2017-11-25T04:49:53.910Z,6.59
2017-11-25T04:50:56.946Z,6.64
2017-11-25T04:51:59.659Z,6.58
2017-11-25T04:53:02.376Z,6.61
2017-11-25T04:54:05.038Z,6.59
2017-11-25T04:55:07.760Z,6.57
2017-11-25T04:56:10.404Z,6.65
2017-11-25T04:57:13.493Z,6.65
2017-11-25T04:58:16.174Z,6.63
2017-11-25T04:59:18.827Z,6.54
2017-11-25T05:15:11.217Z,5.91
2017-11-25T05:16:13.993Z,5.92
2017-11-25T05:17:16.684Z,5.92
2017-11-25T05:18:19.347Z,5.96
2017-11-25T05:19:22.004Z,6.02
2017-11-25T05:20:25.145Z,6.06
2017-11-25T05:21:27.803Z,6.04
2017-11-25T05:22:30.492Z,6.07
2017-11-25T05:23:33.222Z,6.06
2017-11-25T05:24:35.861Z,6.09
2017-11-25T05:25:38.514Z,6.09
2017-11-25T05:26:41.661Z,6.10
2017-11-25T05:27:44.313Z,6.13
2017-11-25T05:28:46.904Z,6.13
2017-11-25T05:29:49.604Z,6.10
2017-11-25T05:30:52.234Z,6.06
2017-11-25T05:31:54.985Z,6.07
2017-11-25T05:32:57.926Z,6.12
2017-11-25T05:34:00.488Z,6.12
2017-11-25T05:35:03.087Z,6.07
2017-11-25T05:36:05.747Z,6.12
2017-11-25T05:37:08.382Z,6.13
2017-11-25T05:38:11.180Z,6.11
2017-11-25T05:39:14.242Z,6.12
2017-11-25T05:40:16.888Z,6.12
2017-11-25T05:41:19.656Z,6.13
2017-11-25T05:42:22.457Z,6.16
2017-11-25T05:43:25.243Z,6.18
2017-11-25T05:44:27.890Z,6.22
2017-11-25T05:45:30.918Z,6.25
2017-11-25T05:46:33.591Z,6.15
2017-11-25T05:47:36.215Z,6.08
2017-11-25T05:48:39.192Z,5.92
2017-11-25T05:49:41.859Z,5.85
2017-11-25T05:50:44.501Z,5.91
2017-11-25T05:51:47.534Z,5.98
2017-11-25T05:52:50.191Z,5.95
2017-11-25T05:53:52.771Z,5.92
2017-11-25T05:54:55.342Z,5.87
2017-11-25T05:55:58.009Z,5.81
2017-11-25T05:57:00.697Z,5.80
2017-11-25T05:58:03.635Z,5.79
2017-11-25T05:59:06.248Z,5.87
2017-11-25T06:00:08.892Z,5.91
2017-11-25T06:01:11.522Z,5.86
2017-11-25T06:02:14.180Z,5.85
2017-11-25T06:03:16.856Z,5.80
2017-11-25T06:04:19.746Z,5.76
2017-11-25T06:05:22.496Z,5.79
2017-11-25T06:06:25.157Z,5.81
2017-11-25T06:07:27.782Z,5.81
2017-11-25T06:08:30.437Z,5.80
2017-11-25T06:09:33.058Z,5.83
2017-11-25T06:10:35.977Z,5.84
2017-11-25T06:11:38.667Z,5.83
2017-11-25T06:12:41.309Z,5.87
2017-11-25T06:13:43.966Z,5.90
2017-11-25T06:14:46.633Z,5.86
2017-11-25T06:15:49.522Z,5.81
2017-11-25T06:16:52.496Z,5.85
2017-11-25T06:17:55.206Z,5.90
2017-11-25T06:18:57.897Z,5.91
2017-11-25T06:20:00.569Z,5.97
2017-11-25T06:21:03.213Z,5.99
2017-11-25T06:22:05.891Z,5.92
2017-11-25T06:23:08.802Z,5.87
2017-11-25T06:24:11.442Z,5.84
2017-11-25T06:25:14.090Z,5.89
2017-11-25T06:26:16.884Z,5.90
2017-11-25T06:27:19.556Z,5.83
2017-11-25T06:28:22.261Z,5.86
2017-11-25T06:29:25.197Z,5.88
2017-11-25T06:30:27.962Z,5.86
2017-11-25T06:31:30.677Z,5.80
2017-11-25T06:32:33.298Z,5.78
2017-11-25T06:33:35.985Z,5.75
2017-11-25T06:34:38.755Z,5.71
2017-11-25T06:35:41.807Z,5.76
2017-11-25T06:36:44.443Z,5.61
2017-11-25T06:37:47.235Z,5.62
2017-11-25T06:38:49.855Z,5.60
2017-11-25T06:39:52.533Z,5.59
2017-11-25T06:40:55.212Z,5.61
2017-11-25T06:41:58.350Z,5.62
2017-11-25T06:43:00.988Z,5.62
2017-11-25T06:44:03.909Z,5.60
2017-11-25T06:45:06.591Z,5.57
2017-11-25T06:46:09.316Z,5.60
2017-11-25T06:47:12.042Z,5.56
2017-11-25T06:48:15.006Z,5.51
2017-11-25T06:49:17.674Z,5.45
2017-11-25T06:50:20.386Z,5.43
2017-11-25T06:51:23.030Z,5.46
2017-11-25T06:52:25.699Z,5.49
2017-11-25T06:53:28.359Z,5.49
2017-11-25T06:54:31.284Z,5.49
2017-11-25T06:55:33.915Z,5.52
2017-11-25T06:56:36.626Z,5.55
2017-11-25T06:57:39.259Z,5.56
2017-11-25T06:58:41.985Z,5.58
2017-11-25T06:59:44.636Z,5.59
2017-11-25T07:00:47.728Z,5.64
2017-11-25T07:01:50.405Z,5.62
2017-11-25T07:02:53.118Z,5.51
2017-11-25T07:03:55.859Z,5.47
2017-11-25T07:04:58.587Z,5.48
2017-11-25T07:06:01.242Z,5.42
2017-11-25T07:07:04.204Z,5.39
2017-11-25T07:08:06.876Z,5.39
2017-11-25T07:09:09.538Z,5.35
2017-11-25T07:10:12.159Z,5.40
2017-11-25T07:11:14.776Z,5.33
2017-11-25T07:12:17.427Z,5.17
2017-11-25T07:13:20.522Z,5.21
2017-11-25T07:14:23.311Z,5.23
2017-11-25T07:15:25.948Z,5.23
2017-11-25T07:16:28.606Z,5.24
2017-11-25T07:17:31.129Z,5.22
2017-11-25T07:18:33.671Z,5.23
2017-11-25T07:19:36.545Z,5.24
2017-11-25T07:20:39.084Z,5.20
2017-11-25T07:21:41.622Z,5.16
2017-11-25T07:22:44.241Z,5.19
2017-11-25T07:23:46.848Z,5.23
2017-11-25T07:24:49.452Z,5.26
2017-11-25T07:25:52.403Z,5.26
2017-11-25T07:26:55.011Z,5.30
2017-11-25T07:27:57.678Z,5.27
2017-11-25T07:29:00.324Z,5.15
2017-11-25T07:30:03.011Z,5.17
2017-11-25T07:31:05.643Z,5.22
2017-11-25T07:32:08.754Z,5.24
2017-11-25T07:33:11.410Z,5.25
2017-11-25T07:34:14.047Z,5.30
2017-11-25T07:35:16.719Z,5.32
2017-11-25T07:36:19.371Z,5.32
2017-11-25T07:37:22.064Z,5.35
2017-11-25T07:38:24.990Z,5.22
2017-11-25T07:39:27.652Z,5.30
2017-11-25T07:40:30.245Z,5.27
2017-11-25T07:41:32.814Z,5.25
2017-11-25T07:42:35.519Z,5.23
2017-11-25T07:43:38.208Z,5.17
2017-11-25T07:44:41.155Z,5.18
2017-11-25T07:45:43.813Z,5.19
2017-11-25T07:46:46.444Z,5.17
2017-11-25T07:47:49.118Z,5.18
2017-11-25T07:48:51.739Z,5.19
2017-11-25T07:49:54.410Z,5.22
2017-11-25T07:50:57.399Z,5.21
2017-11-25T07:52:00.089Z,5.18
2017-11-25T07:53:02.796Z,5.19
2017-11-25T07:54:05.517Z,5.24
2017-11-25T07:55:08.153Z,5.24
2017-11-25T07:56:10.804Z,5.20
2017-11-25T07:57:13.822Z,5.20
2017-11-25T07:58:16.509Z,5.15
2017-11-25T07:59:19.134Z,5.15
2017-11-25T08:00:21.886Z,5.01
2017-11-25T08:01:24.615Z,5.12
2017-11-25T08:02:27.273Z,5.18
2017-11-25T08:03:30.584Z,5.21
2017-11-25T08:04:33.351Z,5.18
2017-11-25T08:05:36.068Z,5.23
2017-11-25T08:06:39.335Z,5.25
2017-11-25T08:07:42.048Z,5.17
2017-11-25T08:08:44.815Z,5.20
2017-11-25T08:09:47.896Z,5.19
2017-11-25T08:10:50.512Z,5.22
2017-11-25T08:11:53.217Z,5.24
2017-11-25T08:12:55.842Z,5.26
2017-11-25T08:13:58.532Z,5.19
2017-11-25T08:15:01.192Z,5.23
2017-11-25T08:16:04.141Z,5.15
2017-11-25T08:17:06.901Z,5.20
2017-11-25T08:18:09.518Z,5.23
2017-11-25T08:19:12.242Z,5.26
2017-11-25T08:20:14.914Z,5.25
2017-11-25T08:21:17.554Z,5.27
2017-11-25T08:22:21.095Z,5.28
2017-11-25T08:23:23.771Z,5.22
2017-11-25T08:24:26.426Z,5.16
2017-11-25T08:25:29.357Z,5.17
2017-11-25T08:26:31.979Z,5.22
2017-11-25T08:27:34.674Z,5.23
2017-11-25T08:28:37.752Z,5.27
2017-11-25T08:29:40.481Z,5.25
2017-11-25T08:30:43.133Z,5.28
2017-11-25T08:31:46.698Z,5.36
2017-11-25T08:32:49.440Z,5.33
2017-11-25T08:33:52.208Z,5.36
2017-11-25T08:34:55.217Z,5.38
2017-11-25T08:35:57.897Z,5.35
2017-11-25T08:37:00.582Z,5.37
2017-11-25T08:38:03.268Z,5.41
2017-11-25T08:39:05.881Z,5.36
2017-11-25T08:40:08.530Z,5.23
2017-11-25T08:41:11.697Z,5.29
2017-11-25T08:42:14.354Z,5.16
2017-11-25T08:43:17.112Z,5.18
2017-11-25T08:44:19.774Z,5.15
2017-11-25T08:45:22.494Z,5.17
2017-11-25T08:46:25.124Z,5.21
2017-11-25T08:47:28.044Z,5.28
2017-11-25T08:48:30.742Z,5.31
2017-11-25T08:49:33.389Z,5.26
2017-11-25T08:50:36.022Z,5.28
2017-11-25T08:51:38.774Z,5.23
2017-11-25T08:52:41.359Z,5.23
2017-11-25T08:53:44.317Z,5.23
2017-11-25T08:54:46.928Z,5.27
2017-11-25T08:55:49.527Z,5.24
2017-11-25T08:56:52.133Z,5.25
2017-11-25T08:57:54.844Z,5.25
2017-11-25T08:58:57.546Z,5.25
2017-11-25T09:00:00.599Z,5.17
2017-11-25T09:01:03.300Z,5.20
2017-11-25T09:02:05.992Z,5.22
2017-11-25T09:03:08.642Z,5.25
2017-11-25T09:04:11.349Z,5.25
2017-11-25T09:05:13.985Z,5.24
2017-11-25T09:06:17.089Z,5.27
2017-11-25T09:07:19.800Z,5.28
2017-11-25T09:08:22.566Z,5.27
2017-11-25T09:09:25.328Z,5.24
2017-11-25T09:10:27.977Z,5.21
2017-11-25T09:11:30.557Z,5.07
2017-11-25T09:12:33.456Z,5.15
2017-11-25T09:13:36.154Z,5.18
2017-11-25T09:14:38.783Z,5.14
2017-11-25T09:15:41.431Z,5.17
2017-11-25T09:16:44.112Z,5.09
2017-11-25T09:17:46.769Z,5.10
2017-11-25T09:18:49.920Z,5.12
2017-11-25T09:19:52.575Z,5.11
2017-11-25T09:20:55.288Z,5.14
2017-11-25T09:21:57.924Z,5.14
2017-11-25T09:23:00.652Z,5.20
2017-11-25T09:24:03.312Z,5.23
2017-11-25T09:25:06.392Z,5.24
2017-11-25T09:26:09.189Z,5.32
2017-11-25T09:27:11.966Z,5.42
2017-11-25T09:28:14.656Z,5.54
2017-11-25T09:29:17.303Z,5.52
2017-11-25T09:30:20.052Z,5.55
2017-11-25T09:31:23.203Z,5.47
2017-11-25T09:32:25.894Z,5.50
2017-11-25T09:33:28.532Z,5.54
2017-11-25T09:34:31.234Z,5.51
2017-11-25T09:35:33.874Z,5.56
2017-11-25T09:36:36.575Z,5.58
2017-11-25T09:37:39.567Z,5.56
2017-11-25T09:38:42.303Z,5.59
2017-11-25T09:39:44.958Z,5.59
2017-11-25T09:40:47.661Z,5.58
2017-11-25T09:41:50.256Z,5.45
2017-11-25T09:42:52.986Z,5.51
2017-11-25T09:43:55.919Z,5.45
2017-11-25T09:44:58.550Z,5.51
2017-11-25T09:46:01.141Z,5.55
2017-11-25T09:47:03.889Z,5.48
2017-11-25T09:48:06.419Z,5.40
2017-11-25T09:49:08.973Z,5.31
2017-11-25T09:50:11.969Z,5.34
2017-11-25T09:51:14.489Z,5.37
2017-11-25T09:52:17.068Z,5.40
2017-11-25T09:53:19.678Z,5.35
2017-11-25T09:54:22.340Z,5.41
2017-11-25T09:55:25.152Z,5.46
2017-11-25T09:56:28.116Z,5.50
2017-11-25T09:57:30.859Z,5.55
2017-11-25T09:58:33.503Z,5.52
2017-11-25T09:59:36.287Z,5.50
2017-11-25T10:00:39.103Z,5.32
2017-11-25T10:01:41.889Z,5.27
2017-11-25T10:02:45.033Z,5.36
2017-11-25T10:03:48.468Z,5.42
2017-11-25T10:04:51.168Z,5.48
2017-11-25T10:05:53.906Z,5.48
2017-11-25T10:06:56.659Z,5.27
2017-11-25T10:07:59.479Z,5.30
2017-11-25T10:09:02.627Z,5.34
2017-11-25T10:10:05.383Z,5.30
2017-11-25T10:11:08.059Z,5.24
2017-11-25T10:12:10.709Z,5.14
2017-11-25T10:13:13.464Z,5.20
2017-11-25T10:14:16.331Z,5.22
2017-11-25T10:15:19.447Z,5.16
2017-11-25T10:16:22.119Z,5.04
2017-11-25T10:17:24.858Z,5.07
2017-11-25T10:18:27.470Z,5.02
2017-11-25T10:19:30.140Z,5.00
2017-11-25T10:20:32.813Z,5.04
2017-11-25T10:21:35.735Z,5.13
2017-11-25T10:22:38.396Z,5.08
2017-11-25T10:23:40.995Z,5.13
2017-11-25T10:24:43.672Z,5.17
2017-11-25T10:25:46.291Z,5.13
2017-11-25T10:26:49.202Z,5.06
2017-11-25T10:27:52.142Z,5.18
2017-11-25T10:28:54.869Z,5.22
2017-11-25T10:29:57.697Z,5.23
2017-11-25T10:31:00.429Z,5.13
2017-11-25T10:32:03.138Z,5.02
2017-11-25T10:33:05.917Z,5.08
2017-11-25T10:34:08.948Z,5.15
2017-11-25T10:35:11.660Z,5.13
2017-11-25T10:36:14.294Z,5.15
2017-11-25T10:37:17.159Z,5.24
2017-11-25T10:38:19.848Z,5.20
2017-11-25T10:39:22.510Z,5.21
2017-11-25T10:40:25.478Z,5.24
2017-11-25T10:41:28.145Z,5.17
2017-11-25T10:42:30.832Z,5.22
2017-11-25T10:43:33.446Z,5.27
2017-11-25T10:44:36.173Z,5.31
2017-11-25T10:45:38.959Z,5.27
2017-11-25T10:46:42.093Z,5.23
2017-11-25T10:47:44.715Z,5.14
2017-11-25T10:48:47.331Z,5.13
2017-11-25T10:49:50.119Z,5.00
2017-11-25T10:50:52.868Z,4.94
2017-11-25T10:51:55.513Z,5.02
2017-11-25T10:52:59.018Z,5.03
2017-11-25T10:54:01.721Z,5.01
2017-11-25T10:55:04.514Z,4.99
2017-11-25T10:56:07.281Z,4.97
2017-11-25T10:57:10.021Z,5.00
2017-11-25T10:58:12.729Z,5.02
2017-11-25T10:59:15.775Z,4.84
2017-11-25T11:15:31.935Z,4.69
2017-11-25T11:16:34.630Z,4.77
2017-11-25T11:17:37.300Z,4.82
2017-11-25T11:18:40.433Z,4.90
2017-11-25T11:19:43.380Z,4.95
2017-11-25T11:20:46.215Z,5.00
2017-11-25T11:21:48.890Z,4.96
2017-11-25T11:22:51.597Z,4.96
2017-11-25T11:23:54.799Z,4.93
2017-11-25T11:24:57.465Z,4.91
2017-11-25T11:26:00.376Z,4.94
2017-11-25T11:27:03.184Z,4.89
2017-11-25T11:28:06.070Z,4.88
2017-11-25T11:29:08.853Z,4.87
2017-11-25T11:30:11.619Z,4.87
2017-11-25T11:31:14.775Z,4.88
2017-11-25T11:32:17.755Z,4.85
2017-11-25T11:33:20.497Z,4.83
2017-11-25T11:34:23.203Z,4.83
2017-11-25T11:35:25.836Z,4.84
2017-11-25T11:36:28.499Z,4.75
2017-11-25T11:37:31.337Z,4.73
2017-11-25T11:38:34.009Z,4.73
2017-11-25T11:39:36.935Z,4.74
2017-11-25T11:40:39.608Z,4.71
2017-11-25T11:41:42.322Z,4.73
2017-11-25T11:42:45.174Z,4.78
2017-11-25T11:43:48.291Z,4.85
2017-11-25T11:44:51.010Z,4.87
2017-11-25T11:45:53.705Z,4.86
2017-11-25T11:46:56.543Z,4.86
2017-11-25T11:47:59.271Z,4.94
2017-11-25T11:49:02.448Z,5.00
2017-11-25T11:50:05.543Z,4.95
2017-11-25T11:51:09.460Z,4.96
2017-11-25T11:52:12.123Z,4.95
2017-11-25T11:53:15.306Z,4.94
2017-11-25T11:54:18.071Z,4.97
2017-11-25T11:55:20.961Z,4.92
2017-11-25T11:56:24.005Z,4.90
2017-11-25T11:57:26.751Z,4.98
2017-11-25T11:58:29.388Z,5.02
2017-11-25T11:59:32.059Z,5.02
2017-11-25T12:00:35.037Z,4.91
2017-11-25T12:01:38.071Z,4.95
2017-11-25T12:02:41.282Z,4.96
2017-11-25T12:03:44.008Z,4.95
2017-11-25T12:04:46.663Z,4.98
2017-11-25T12:05:49.677Z,4.96
2017-11-25T12:06:52.347Z,5.04
2017-11-25T12:07:55.135Z,5.00
2017-11-25T12:08:58.324Z,4.80
2017-11-25T12:10:01.102Z,4.58
2017-11-25T12:11:04.220Z,4.65
2017-11-25T12:12:07.240Z,4.68
2017-11-25T12:13:10.007Z,4.60
2017-11-25T12:14:12.805Z,4.57
2017-11-25T12:15:15.958Z,4.64
2017-11-25T12:16:18.641Z,4.68
2017-11-25T12:17:21.423Z,4.73
2017-11-25T12:18:24.417Z,4.60
2017-11-25T12:19:27.103Z,4.51
2017-11-25T12:20:29.865Z,4.42
2017-11-25T12:21:32.929Z,4.49
2017-11-25T12:22:35.643Z,4.39
2017-11-25T12:23:38.379Z,4.41
2017-11-25T12:24:41.170Z,4.43
2017-11-25T12:25:43.848Z,4.11
2017-11-25T12:26:46.712Z,4.14
2017-11-25T12:27:51.361Z,4.22
2017-11-25T12:28:54.215Z,4.22
2017-11-25T12:29:56.953Z,4.18
2017-11-25T12:30:59.644Z,4.09
2017-11-25T12:32:02.326Z,4.02
2017-11-25T12:33:05.018Z,3.97
2017-11-25T12:34:08.045Z,3.84
2017-11-25T12:35:10.782Z,3.79
2017-11-25T12:36:13.519Z,3.72
2017-11-25T12:37:16.193Z,3.65
2017-11-25T12:38:18.844Z,3.57
2017-11-25T12:39:21.517Z,3.60
2017-11-25T12:40:24.466Z,3.50
2017-11-25T12:41:27.181Z,3.65
2017-11-25T12:42:29.859Z,3.57
2017-11-25T12:43:32.798Z,3.67
2017-11-25T12:44:35.703Z,3.67
2017-11-25T12:45:38.432Z,3.77
2017-11-25T12:46:41.592Z,3.77
2017-11-25T12:47:44.221Z,3.79
2017-11-25T12:48:46.999Z,3.85
2017-11-25T12:49:49.888Z,3.76
2017-11-25T12:50:52.525Z,3.82
2017-11-25T12:51:55.346Z,3.75
2017-11-25T12:52:58.312Z,3.85
2017-11-25T12:54:01.885Z,3.91
2017-11-25T12:55:04.556Z,3.94
2017-11-25T12:56:07.336Z,4.00
2017-11-25T12:57:10.074Z,4.04
2017-11-25T12:58:12.712Z,4.03
2017-11-25T12:59:15.884Z,4.03
2017-11-25T13:00:18.524Z,4.05
2017-11-25T13:01:21.169Z,4.14
2017-11-25T13:02:23.794Z,4.15
2017-11-25T13:03:26.488Z,4.06
2017-11-25T13:04:29.143Z,4.02
2017-11-25T13:05:32.135Z,3.87
2017-11-25T13:06:34.820Z,3.90
2017-11-25T13:07:37.464Z,3.94
2017-11-25T13:08:40.133Z,3.97
2017-11-25T13:09:42.846Z,3.94
2017-11-25T13:10:45.481Z,3.92
2017-11-25T13:11:48.457Z,3.88
2017-11-25T13:12:51.147Z,3.77
2017-11-25T13:13:53.870Z,3.88
2017-11-25T13:14:56.535Z,3.93
2017-11-25T13:15:59.234Z,3.92
2017-11-25T13:17:01.923Z,3.96
2017-11-25T13:18:05.011Z,3.89
2017-11-25T13:19:07.679Z,3.92
2017-11-25T13:20:10.899Z,3.95
2017-11-25T13:21:13.565Z,3.93
2017-11-25T13:22:16.221Z,3.85
2017-11-25T13:23:18.841Z,3.86
2017-11-25T13:24:21.766Z,3.80
2017-11-25T13:25:24.451Z,3.72
2017-11-25T13:26:27.107Z,3.54
2017-11-25T13:27:29.659Z,3.61
2017-11-25T13:28:32.311Z,3.64
2017-11-25T13:29:34.943Z,3.55
2017-11-25T13:30:37.908Z,3.61
2017-11-25T13:31:40.595Z,3.65
2017-11-25T13:32:43.237Z,3.50
2017-11-25T13:33:45.932Z,3.56
2017-11-25T13:34:48.601Z,3.56
2017-11-25T13:35:51.297Z,3.55
2017-11-25T13:36:53.943Z,3.60
2017-11-25T13:37:57.326Z,3.56
2017-11-25T13:38:59.965Z,3.60
2017-11-25T13:40:02.679Z,3.66
2017-11-25T13:41:05.368Z,3.64
2017-11-25T13:42:08.090Z,3.50
2017-11-25T13:43:11.155Z,3.47
2017-11-25T13:44:13.931Z,3.56
2017-11-25T13:45:16.622Z,3.57
2017-11-25T13:46:19.946Z,3.65
2017-11-25T13:47:22.655Z,3.52
2017-11-25T13:48:25.419Z,3.55
2017-11-25T13:49:28.472Z,3.66
2017-11-25T13:50:31.133Z,3.63
2017-11-25T13:51:33.883Z,3.52
2017-11-25T13:52:36.593Z,3.71
2017-11-25T13:53:39.459Z,3.83
2017-11-25T13:54:42.127Z,4.03
2017-11-25T13:55:45.334Z,4.05
2017-11-25T13:56:48.149Z,4.08
2017-11-25T13:57:50.920Z,4.19
2017-11-25T13:58:53.649Z,4.24
2017-11-25T13:59:56.322Z,4.29
2017-11-25T14:00:59.038Z,4.28
2017-11-25T14:02:02.244Z,3.91
2017-11-25T14:03:04.904Z,3.98
2017-11-25T14:04:07.650Z,4.01
2017-11-25T14:05:10.290Z,4.11
2017-11-25T14:06:12.993Z,4.12
2017-11-25T14:07:15.823Z,4.09
2017-11-25T14:08:18.966Z,3.98
2017-11-25T14:09:21.695Z,3.87
2017-11-25T14:10:24.441Z,3.66
2017-11-25T14:11:27.131Z,3.68
2017-11-25T14:12:29.868Z,3.77
2017-11-25T14:13:32.518Z,3.61
2017-11-25T14:14:35.540Z,3.63
2017-11-25T14:15:38.212Z,3.58
2017-11-25T14:16:40.882Z,3.59
2017-11-25T14:17:43.603Z,3.54
2017-11-25T14:18:46.268Z,3.61
2017-11-25T14:19:49.061Z,3.66
2017-11-25T14:20:52.144Z,3.63
2017-11-25T14:21:54.879Z,3.65
2017-11-25T14:22:57.522Z,3.72
2017-11-25T14:24:00.175Z,3.78
2017-11-25T14:25:02.827Z,3.76